Time;durP1;ratioP1;P1;durP2;ratioP2;P2;SDS_P1;SDS_P2;PMS_P1;PMS_P2;Temp;Humidity;BMP_temperature;BMP_pressure;BME280_temperature;BME280_humidity;BME280_pressure;Samples;Min_cycle;Max_cycle;Signal;HPM_P1;HPM_P2
2022/10/25 00:01:47;;;;;;;10.63;4.73;;;15.10;99.90;;;;;;5112769;28;20451;-47
2022/10/25 00:04:15;;;;;;;9.47;4.00;;;15.00;99.90;;;;;;5112499;28;20454;-47
2022/10/25 00:06:42;;;;;;;7.33;4.20;;;14.60;99.90;;;;;;5112780;28;20475;-47
2022/10/25 00:09:10;;;;;;;9.23;4.13;;;15.20;99.90;;;;;;5112473;28;20638;-47
2022/10/25 00:11:36;;;;;;;8.13;4.70;;;15.10;99.90;;;;;;5112571;28;20455;-49
2022/10/25 00:14:05;;;;;;;8.43;4.40;;;15.40;99.90;;;;;;5112741;28;20452;-47
2022/10/25 00:16:34;;;;;;;8.13;4.80;;;15.20;99.90;;;;;;5112662;28;20485;-47
2022/10/25 00:19:01;;;;;;;7.83;4.37;;;14.80;99.90;;;;;;5112042;28;20427;-48
2022/10/25 00:21:27;;;;;;;6.80;4.60;;;15.00;99.90;;;;;;5112470;28;20414;-47
2022/10/25 00:23:54;;;;;;;13.00;5.30;;;15.10;99.90;;;;;;5093975;28;20439;-47
2022/10/25 00:26:22;;;;;;;11.00;4.80;;;15.60;99.90;;;;;;5093981;28;20996;-47
2022/10/25 00:28:49;;;;;;;13.93;4.93;;;15.20;99.90;;;;;;5111893;28;20441;-47
2022/10/25 00:31:16;;;;;;;10.27;4.60;;;14.80;99.90;;;;;;5112224;28;20440;-47
2022/10/25 00:33:44;;;;;;;7.43;4.47;;;15.10;99.90;;;;;;5112221;28;20932;-48
2022/10/25 00:36:12;;;;;;;8.77;4.57;;;15.00;99.90;;;;;;5112254;28;20443;-47
2022/10/25 00:38:40;;;;;;;8.50;4.57;;;15.00;99.90;;;;;;5111820;28;20433;-47
2022/10/25 00:41:07;;;;;;;5.53;3.93;;;15.60;99.90;;;;;;5093811;28;20459;-47
2022/10/25 00:43:37;;;;;;;7.53;4.40;;;15.10;99.90;;;;;;5112200;28;20510;-48
2022/10/25 00:46:06;;;;;;;10.13;4.27;;;15.10;99.90;;;;;;5112452;28;20420;-48
2022/10/25 00:48:34;;;;;;;22.13;4.43;;;15.10;99.90;;;;;;5111807;28;20480;-47
2022/10/25 00:51:02;;;;;;;9.90;4.20;;;15.00;99.90;;;;;;5112292;28;20434;-47
2022/10/25 00:53:33;;;;;;;10.07;4.50;;;14.90;99.90;;;;;;5112129;28;20449;-47
2022/10/25 00:56:05;;;;;;;7.27;3.93;;;15.00;99.90;;;;;;5111974;28;20442;-48
2022/10/25 00:58:37;;;;;;;9.13;4.77;;;14.90;99.90;;;;;;5111719;28;20427;-47
2022/10/25 01:01:08;;;;;;;7.60;5.03;;;15.00;99.90;;;;;;5111953;28;20841;-47
2022/10/25 01:03:38;;;;;;;9.87;4.93;;;15.10;99.90;;;;;;5112073;28;20518;-47
2022/10/25 01:06:07;;;;;;;8.23;4.10;;;14.70;99.90;;;;;;5112520;28;20470;-47
2022/10/25 01:08:34;;;;;;;8.97;4.80;;;15.00;99.90;;;;;;5112248;28;20475;-47
2022/10/25 01:11:00;;;;;;;9.53;5.00;;;15.30;99.90;;;;;;5094357;28;20815;-48
2022/10/25 01:13:27;;;;;;;10.47;4.97;;;15.00;99.90;;;;;;5112785;28;20959;-47
2022/10/25 01:16:04;;;;;;;5.27;4.20;;;14.80;99.90;;;;;;5112275;28;21007;-48
2022/10/25 01:18:42;;;;;;;11.13;5.00;;;15.40;99.90;;;;;;5093786;28;20810;-48
2022/10/25 01:21:38;;;;;;;8.60;4.13;;;15.10;99.90;;;;;;5112518;28;20526;-49
2022/10/25 01:24:20;;;;;;;9.17;4.97;;;15.10;99.90;;;;;;5112361;28;20465;-47
2022/10/25 01:27:03;;;;;;;9.70;5.47;;;15.30;99.90;;;;;;5112432;28;20509;-48
2022/10/25 01:29:56;;;;;;;9.77;5.63;;;15.10;99.90;;;;;;5111632;28;20436;-47
2022/10/25 01:32:30;;;;;;;9.80;4.60;;;15.30;99.90;;;;;;5093173;28;20823;-47
2022/10/25 01:35:04;;;;;;;9.80;4.20;;;15.20;99.90;;;;;;5111741;28;20444;-47
2022/10/25 01:37:41;;;;;;;8.50;5.13;;;14.70;99.90;;;;;;5112205;28;20485;-47
2022/10/25 01:40:17;;;;;;;10.07;4.40;;;15.50;99.90;;;;;;5111436;28;20433;-47
2022/10/25 01:42:52;;;;;;;5.00;4.07;;;15.20;99.90;;;;;;5111610;28;20433;-48
2022/10/25 01:45:24;;;;;;;6.83;4.03;;;15.40;99.90;;;;;;5111537;28;20446;-48
2022/10/25 01:47:58;;;;;;;8.23;5.03;;;15.20;99.90;;;;;;5111533;28;20479;-48
2022/10/25 01:50:28;;;;;;;12.73;4.67;;;15.30;99.90;;;;;;5111440;28;20431;-47
2022/10/25 01:52:55;;;;;;;11.50;5.40;;;15.40;99.90;;;;;;5111720;28;20458;-47
2022/10/25 01:55:27;;;;;;;8.90;4.00;;;15.30;99.90;;;;;;5111861;28;20809;-47
2022/10/25 01:58:01;;;;;;;8.63;3.83;;;15.70;99.90;;;;;;5111570;28;20426;-47
2022/10/25 02:00:30;;;;;;;10.20;5.10;;;15.60;99.90;;;;;;5111240;28;20520;-48
2022/10/25 02:03:18;;;;;;;5.93;4.40;;;15.30;99.90;;;;;;5111607;28;20431;-47
2022/10/25 02:06:03;;;;;;;7.13;4.13;;;15.30;99.90;;;;;;5111514;28;20482;-49
2022/10/25 02:08:36;;;;;;;11.33;5.33;;;15.20;99.90;;;;;;5110809;28;20481;-48
2022/10/25 02:11:09;;;;;;;7.93;3.77;;;15.70;99.90;;;;;;5115016;28;20432;-46
2022/10/25 02:13:47;;;;;;;13.63;5.57;;;15.40;99.90;;;;;;5115063;28;20428;-49
2022/10/25 02:16:18;;;;;;;7.67;3.70;;;15.60;99.90;;;;;;5115241;28;20781;-47
2022/10/25 02:18:49;;;;;;;10.77;4.30;;;15.20;99.90;;;;;;5114537;28;20435;-47
2022/10/25 02:21:18;;;;;;;6.27;4.03;;;15.20;99.90;;;;;;5114888;28;20435;-47
2022/10/25 02:23:47;;;;;;;9.30;4.33;;;15.20;99.90;;;;;;5114665;28;20427;-47
2022/10/25 02:26:15;;;;;;;8.53;4.70;;;15.60;99.90;;;;;;5114942;28;20433;-46
2022/10/25 02:28:42;;;;;;;7.70;4.10;;;15.60;99.90;;;;;;5114599;28;20567;-46
2022/10/25 02:31:13;;;;;;;24.00;6.63;;;15.30;99.90;;;;;;5114880;28;20425;-47
2022/10/25 02:33:40;;;;;;;7.00;3.60;;;15.40;99.90;;;;;;5114776;28;20432;-48
2022/10/25 02:36:13;;;;;;;8.30;3.87;;;15.30;99.90;;;;;;5114999;28;20424;-47
2022/10/25 02:38:41;;;;;;;9.43;4.33;;;15.00;99.90;;;;;;5115126;28;20427;-48
2022/10/25 02:41:08;;;;;;;8.70;3.50;;;15.50;99.90;;;;;;5115104;28;21022;-46
2022/10/25 02:43:35;;;;;;;5.43;3.70;;;15.50;99.90;;;;;;5115461;28;20441;-47
2022/10/25 02:46:07;;;;;;;7.77;4.60;;;15.50;99.90;;;;;;5115245;28;20440;-47
2022/10/25 02:48:34;;;;;;;6.33;3.50;;;15.10;99.90;;;;;;5114913;28;20471;-46
2022/10/25 02:51:00;;;;;;;10.57;4.20;;;15.80;99.90;;;;;;5115133;28;20520;-48
2022/10/25 02:53:28;;;;;;;9.40;4.70;;;15.50;99.90;;;;;;5115221;28;20443;-47
2022/10/25 02:56:02;;;;;;;5.83;3.43;;;16.00;99.90;;;;;;5114824;28;20458;-47
2022/10/25 02:58:31;;;;;;;6.30;3.77;;;15.40;99.90;;;;;;5114536;28;20780;-47
2022/10/25 03:00:58;;;;;;;7.77;3.60;;;16.00;99.90;;;;;;5114453;28;20422;-46
2022/10/25 03:03:26;;;;;;;7.30;4.00;;;15.70;99.90;;;;;;5114576;28;20431;-48
2022/10/25 03:05:53;;;;;;;6.27;3.67;;;15.60;99.90;;;;;;5114185;28;20471;-47
2022/10/25 03:08:21;;;;;;;8.27;4.20;;;15.70;99.90;;;;;;5114210;28;20490;-46
2022/10/25 03:10:49;;;;;;;5.20;3.60;;;15.40;99.90;;;;;;5113841;28;20436;-48
2022/10/25 03:13:16;;;;;;;7.50;3.60;;;15.30;99.90;;;;;;5114418;28;20428;-47
2022/10/25 03:15:42;;;;;;;9.60;4.40;;;15.50;99.90;;;;;;5113860;28;20530;-47
2022/10/25 03:18:09;;;;;;;9.13;3.53;;;15.90;99.90;;;;;;5095880;28;20432;-48
2022/10/25 03:20:36;;;;;;;8.50;2.97;;;15.50;99.90;;;;;;5113044;28;20434;-46
2022/10/25 03:23:03;;;;;;;8.70;3.60;;;15.50;99.90;;;;;;5114709;28;20796;-47
2022/10/25 03:25:30;;;;;;;9.13;3.47;;;15.70;99.90;;;;;;5114004;28;20471;-47
2022/10/25 03:27:59;;;;;;;9.57;4.10;;;15.50;99.90;;;;;;5113946;28;20486;-47
2022/10/25 03:30:25;;;;;;;8.10;3.57;;;15.20;99.90;;;;;;5113758;28;20467;-46
2022/10/25 03:32:53;;;;;;;9.03;3.50;;;15.20;99.90;;;;;;5113683;28;20523;-47
2022/10/25 03:35:19;;;;;;;11.00;3.33;;;15.80;99.90;;;;;;5113333;28;20547;-48
2022/10/25 03:37:47;;;;;;;7.93;3.77;;;15.30;99.90;;;;;;5113655;28;20433;-46
2022/10/25 03:40:14;;;;;;;9.73;3.90;;;15.10;99.90;;;;;;5113205;28;20519;-47
2022/10/25 03:42:41;;;;;;;9.97;3.73;;;15.50;99.90;;;;;;5113358;28;20440;-47
2022/10/25 03:45:10;;;;;;;7.97;3.47;;;15.70;99.90;;;;;;5113360;28;20453;-47
2022/10/25 03:47:36;;;;;;;9.20;3.33;;;15.50;99.90;;;;;;5113387;28;20486;-47
2022/10/25 03:50:03;;;;;;;6.27;3.13;;;15.40;99.90;;;;;;5112887;28;20436;-47
2022/10/25 03:52:30;;;;;;;13.10;3.73;;;15.40;99.90;;;;;;5113208;28;20431;-47
2022/10/25 03:54:56;;;;;;;9.10;3.50;;;15.80;99.90;;;;;;5113019;28;20458;-47
2022/10/25 03:57:23;;;;;;;9.77;3.70;;;16.00;99.90;;;;;;5113268;28;20463;-47
2022/10/25 03:59:49;;;;;;;12.73;2.97;;;15.50;99.90;;;;;;5112701;28;20499;-46
2022/10/25 04:02:17;;;;;;;10.63;4.13;;;15.60;99.90;;;;;;5113250;28;20789;-47
2022/10/25 04:04:44;;;;;;;7.30;3.17;;;16.00;99.90;;;;;;5112623;28;20988;-48
2022/10/25 04:07:11;;;;;;;6.17;2.63;;;15.40;99.90;;;;;;5112754;28;20433;-46
2022/10/25 04:09:37;;;;;;;6.00;3.23;;;15.10;99.90;;;;;;5112402;28;20482;-46
2022/10/25 04:12:04;;;;;;;4.60;2.30;;;15.60;99.90;;;;;;5094418;28;20445;-46
2022/10/25 04:14:31;;;;;;;6.87;3.10;;;15.60;99.90;;;;;;5112525;28;20471;-47
2022/10/25 04:16:58;;;;;;;7.40;2.90;;;15.50;99.90;;;;;;5112935;28;20436;-47
2022/10/25 04:19:26;;;;;;;9.00;2.90;;;15.30;99.90;;;;;;5112199;28;20515;-48
2022/10/25 04:21:52;;;;;;;6.73;3.00;;;16.00;99.90;;;;;;5112308;28;21045;-47
2022/10/25 04:24:19;;;;;;;6.23;2.70;;;15.70;99.90;;;;;;5108600;22;20484;-48
2022/10/25 04:26:46;;;;;;;8.63;2.87;;;15.80;99.90;;;;;;5112732;28;20442;-48
2022/10/25 04:29:12;;;;;;;6.40;2.40;;;15.40;99.90;;;;;;5112261;28;20570;-48
2022/10/25 04:31:39;;;;;;;7.27;3.60;;;15.50;99.90;;;;;;5112615;28;20851;-48
2022/10/25 04:34:05;;;;;;;5.93;2.40;;;15.70;99.90;;;;;;5112511;28;20833;-48
2022/10/25 04:36:33;;;;;;;6.57;2.40;;;15.70;99.90;;;;;;5112610;28;20428;-47
2022/10/25 04:39:01;;;;;;;5.70;2.13;;;15.60;99.90;;;;;;5112488;28;20410;-47
2022/10/25 04:41:27;;;;;;;7.83;2.60;;;15.30;99.90;;;;;;5112624;28;20434;-48
2022/10/25 04:43:54;;;;;;;3.30;2.00;;;15.60;99.90;;;;;;5112607;28;20433;-47
2022/10/25 04:46:21;;;;;;;3.43;2.33;;;15.40;99.90;;;;;;5112317;28;21139;-46
2022/10/25 04:48:47;;;;;;;6.13;2.37;;;15.20;99.90;;;;;;5093480;28;20469;-48
2022/10/25 04:51:14;;;;;;;5.97;2.60;;;15.50;99.90;;;;;;5112477;28;20436;-47
2022/10/25 04:53:42;;;;;;;4.27;2.10;;;15.50;99.90;;;;;;5112286;28;20457;-47
2022/10/25 04:56:10;;;;;;;4.53;2.90;;;15.40;99.90;;;;;;5093777;28;20864;-49
2022/10/25 04:58:37;;;;;;;8.80;3.03;;;15.50;99.90;;;;;;5111697;28;20425;-46
2022/10/25 05:01:06;;;;;;;5.07;1.93;;;15.10;99.90;;;;;;5112220;28;20438;-47
2022/10/25 05:03:33;;;;;;;5.13;2.10;;;15.40;99.90;;;;;;5112272;28;20436;-47
2022/10/25 05:06:08;;;;;;;5.97;2.80;;;15.80;99.90;;;;;;5112001;28;20448;-48
2022/10/25 05:08:35;;;;;;;6.63;2.77;;;15.70;99.90;;;;;;5112232;28;20467;-47
2022/10/25 05:11:03;;;;;;;4.60;2.63;;;15.90;99.90;;;;;;5093951;28;20440;-47
2022/10/25 05:13:32;;;;;;;8.97;2.60;;;15.40;99.90;;;;;;5112290;28;20442;-48
2022/10/25 05:15:59;;;;;;;5.37;2.50;;;15.50;99.90;;;;;;5111857;28;20448;-48
2022/10/25 05:18:26;;;;;;;5.93;2.80;;;15.70;99.90;;;;;;5111557;28;20457;-48
2022/10/25 05:20:53;;;;;;;4.80;2.70;;;15.60;99.90;;;;;;5111849;28;20427;-48
2022/10/25 05:23:20;;;;;;;4.90;2.90;;;15.20;99.90;;;;;;5093565;28;20470;-48
2022/10/25 05:25:47;;;;;;;6.40;2.97;;;14.80;99.90;;;;;;5111799;28;20466;-48
2022/10/25 05:28:15;;;;;;;4.93;3.03;;;15.10;99.90;;;;;;5111775;28;20479;-49
2022/10/25 05:30:42;;;;;;;7.20;3.00;;;14.50;99.90;;;;;;5111691;28;20430;-48
2022/10/25 05:33:10;;;;;;;10.33;3.60;;;15.30;99.90;;;;;;5111852;28;20438;-48
2022/10/25 05:35:36;;;;;;;7.87;2.90;;;14.90;99.90;;;;;;5111885;28;20466;-48
2022/10/25 05:38:03;;;;;;;5.43;3.23;;;15.00;99.90;;;;;;5112134;28;20414;-49
2022/10/25 05:40:29;;;;;;;7.77;3.30;;;14.90;99.90;;;;;;5111883;28;20454;-48
2022/10/25 05:42:56;;;;;;;6.40;3.20;;;15.00;99.90;;;;;;5111768;28;20442;-47
2022/10/25 05:45:24;;;;;;;7.97;3.00;;;14.90;99.90;;;;;;5114695;28;20456;-47
2022/10/25 05:47:50;;;;;;;9.43;3.37;;;15.20;99.90;;;;;;5097000;28;20427;-47
2022/10/25 05:50:17;;;;;;;4.70;2.70;;;15.20;99.90;;;;;;5115336;28;20443;-48
2022/10/25 05:52:44;;;;;;;4.23;2.50;;;15.60;99.90;;;;;;5116204;28;20428;-48
2022/10/25 05:55:11;;;;;;;5.40;2.80;;;15.00;99.90;;;;;;5116055;28;20448;-48
2022/10/25 05:57:37;;;;;;;6.83;3.23;;;15.20;99.90;;;;;;5115903;28;20800;-48
2022/10/25 06:00:05;;;;;;;4.80;2.40;;;15.60;99.90;;;;;;5115463;28;20428;-48
2022/10/25 06:02:34;;;;;;;6.40;2.90;;;14.90;99.90;;;;;;5116035;28;20483;-47
2022/10/25 06:05:00;;;;;;;5.70;2.40;;;15.40;99.90;;;;;;5115820;28;20948;-47
2022/10/25 06:07:27;;;;;;;6.93;3.30;;;15.20;99.90;;;;;;5115694;28;20432;-49
2022/10/25 06:09:53;;;;;;;11.37;2.53;;;15.10;99.90;;;;;;5115701;28;20446;-48
2022/10/25 06:12:20;;;;;;;5.30;2.57;;;15.20;99.90;;;;;;5115811;28;20435;-47
2022/10/25 06:14:47;;;;;;;7.90;2.87;;;15.30;99.90;;;;;;5116242;28;20804;-47
2022/10/25 06:17:13;;;;;;;11.90;3.00;;;15.50;99.90;;;;;;5116025;28;20424;-47
2022/10/25 06:19:41;;;;;;;7.50;2.47;;;15.00;99.90;;;;;;5114863;28;20436;-48
2022/10/25 06:22:08;;;;;;;5.10;2.40;;;15.00;99.90;;;;;;5115777;28;20431;-48
2022/10/25 06:24:34;;;;;;;8.23;3.60;;;15.40;99.90;;;;;;5114795;28;20507;-48
2022/10/25 06:27:01;;;;;;;6.23;2.40;;;15.50;99.90;;;;;;5115103;28;20978;-47
2022/10/25 06:29:28;;;;;;;5.20;2.30;;;15.10;99.90;;;;;;5114323;28;20487;-48
2022/10/25 06:31:54;;;;;;;7.23;2.83;;;15.40;99.90;;;;;;5114743;28;20432;-48
2022/10/25 06:34:21;;;;;;;14.50;2.93;;;15.70;99.90;;;;;;5114808;28;20462;-49
2022/10/25 06:36:49;;;;;;;4.37;2.20;;;15.60;99.90;;;;;;5096463;28;20799;-48
2022/10/25 06:39:16;;;;;;;4.80;2.60;;;15.30;99.90;;;;;;5113828;28;20431;-48
2022/10/25 06:41:43;;;;;;;6.13;2.33;;;15.90;99.90;;;;;;5114486;28;20432;-46
2022/10/25 06:44:10;;;;;;;6.37;2.60;;;15.80;99.90;;;;;;5095702;28;20447;-47
2022/10/25 06:46:38;;;;;;;13.73;3.13;;;15.30;99.90;;;;;;5114454;28;20435;-47
2022/10/25 06:49:05;;;;;;;7.00;2.57;;;15.60;99.90;;;;;;5113547;28;20483;-47
2022/10/25 06:51:33;;;;;;;10.87;2.43;;;15.80;99.90;;;;;;5114306;28;20425;-47
2022/10/25 06:54:04;;;;;;;6.93;2.53;;;15.60;99.90;;;;;;5114158;28;20433;-47
2022/10/25 06:56:31;;;;;;;11.40;2.77;;;15.80;99.90;;;;;;5095923;28;20462;-49
2022/10/25 06:58:58;;;;;;;7.40;2.70;;;15.70;99.90;;;;;;5113551;28;20428;-46
2022/10/25 07:01:25;;;;;;;9.93;3.20;;;15.70;99.90;;;;;;5095622;28;21017;-48
2022/10/25 07:03:53;;;;;;;9.13;4.17;;;15.70;99.90;;;;;;5114194;28;20439;-48
2022/10/25 07:06:23;;;;;;;8.30;3.10;;;16.00;99.90;;;;;;5113750;28;21273;-47
2022/10/25 07:08:54;;;;;;;11.53;2.90;;;15.80;99.90;;;;;;5113356;28;20498;-47
2022/10/25 07:11:23;;;;;;;9.00;2.70;;;15.70;99.90;;;;;;5113653;28;20476;-48
2022/10/25 07:13:50;;;;;;;6.03;2.60;;;15.70;99.90;;;;;;5113597;28;20948;-47
2022/10/25 07:16:18;;;;;;;10.20;2.10;;;15.90;99.90;;;;;;5113727;28;20448;-48
2022/10/25 07:18:45;;;;;;;10.10;2.50;;;15.90;99.90;;;;;;5113320;28;20883;-48
2022/10/25 07:21:13;;;;;;;7.37;2.73;;;16.30;99.90;;;;;;5113925;28;20421;-48
2022/10/25 07:23:41;;;;;;;6.60;2.27;;;16.30;99.90;;;;;;5113390;28;20434;-48
2022/10/25 07:26:09;;;;;;;8.90;3.47;;;16.00;99.90;;;;;;5113579;28;20477;-47
2022/10/25 07:28:37;;;;;;;6.17;2.97;;;16.50;99.90;;;;;;5113998;28;20439;-48
2022/10/25 07:31:04;;;;;;;6.50;2.87;;;16.10;99.90;;;;;;5114334;28;20957;-48
2022/10/25 07:33:31;;;;;;;7.60;3.27;;;16.10;99.90;;;;;;5114030;28;20459;-48
2022/10/25 07:35:58;;;;;;;8.57;3.60;;;16.10;99.90;;;;;;5113258;28;20785;-48
2022/10/25 07:38:25;;;;;;;6.90;3.80;;;16.30;99.90;;;;;;5113337;28;20845;-48
2022/10/25 07:40:55;;;;;;;8.47;3.13;;;16.30;99.90;;;;;;5113549;28;20437;-50
2022/10/25 07:43:22;;;;;;;10.90;4.10;;;16.10;99.90;;;;;;5113315;28;20443;-47
2022/10/25 07:45:51;;;;;;;5.90;2.30;;;16.70;99.90;;;;;;5113241;28;20861;-48
2022/10/25 07:48:18;;;;;;;12.80;4.33;;;16.50;99.90;;;;;;5113527;28;20426;-48
2022/10/25 07:50:44;;;;;;;9.80;2.83;;;16.10;99.90;;;;;;5113341;28;20476;-47
2022/10/25 07:53:11;;;;;;;11.63;3.00;;;16.60;99.90;;;;;;5113346;28;20824;-48
2022/10/25 07:55:38;;;;;;;7.77;3.03;;;16.50;99.90;;;;;;5113086;28;20449;-48
2022/10/25 07:58:06;;;;;;;9.23;2.70;;;16.50;99.90;;;;;;5113158;28;20440;-48
2022/10/25 08:00:35;;;;;;;13.83;3.47;;;16.20;99.90;;;;;;5112916;28;20433;-48
2022/10/25 08:03:03;;;;;;;9.13;2.90;;;16.70;99.90;;;;;;5093877;28;20434;-47
2022/10/25 08:05:30;;;;;;;11.27;3.43;;;17.00;99.90;;;;;;5113059;28;20272;-47
2022/10/25 08:07:56;;;;;;;9.13;2.80;;;16.90;99.90;;;;;;5112893;28;20430;-48
2022/10/25 08:10:23;;;;;;;10.43;3.20;;;16.80;99.90;;;;;;5112874;28;20475;-48
2022/10/25 08:12:50;;;;;;;11.60;7.10;;;17.00;99.90;;;;;;5112979;28;20525;-48
2022/10/25 08:15:17;;;;;;;12.30;4.20;;;16.90;99.90;;;;;;5112979;28;20489;-48
2022/10/25 08:17:44;;;;;;;11.17;5.13;;;16.70;99.90;;;;;;5112746;28;20430;-47
2022/10/25 08:20:12;;;;;;;6.97;3.03;;;16.60;99.90;;;;;;5112374;28;20901;-48
2022/10/25 08:22:39;;;;;;;12.13;3.53;;;16.40;99.90;;;;;;5112342;28;20432;-48
2022/10/25 08:25:07;;;;;;;12.40;3.57;;;16.70;99.90;;;;;;5112400;28;20535;-48
2022/10/25 08:27:33;;;;;;;8.87;3.57;;;16.60;99.90;;;;;;5112861;28;20769;-48
2022/10/25 08:30:00;;;;;;;6.07;3.40;;;16.50;99.90;;;;;;5112188;28;20481;-48
2022/10/25 08:32:27;;;;;;;6.10;3.03;;;16.70;99.90;;;;;;5112591;28;20772;-48
2022/10/25 08:34:54;;;;;;;5.43;2.33;;;16.60;99.90;;;;;;5112522;28;20454;-46
2022/10/25 08:37:21;;;;;;;7.23;3.03;;;16.60;99.90;;;;;;5112854;28;20437;-48
2022/10/25 08:39:48;;;;;;;7.93;2.70;;;16.60;99.90;;;;;;5112100;28;20445;-48
2022/10/25 08:42:22;;;;;;;6.20;2.63;;;16.60;99.90;;;;;;5112321;28;20535;-49
2022/10/25 08:44:55;;;;;;;15.60;3.90;;;16.50;99.90;;;;;;5112071;28;20467;-48
2022/10/25 08:47:26;;;;;;;8.03;3.80;;;17.10;99.90;;;;;;5112288;28;20433;-48
2022/10/25 08:49:57;;;;;;;8.30;2.53;;;16.70;99.90;;;;;;5111912;28;20813;-48
2022/10/25 08:52:32;;;;;;;9.53;3.00;;;17.00;99.90;;;;;;5112168;28;20422;-48
2022/10/25 08:55:02;;;;;;;10.25;3.20;;;16.70;99.90;;;;;;5111763;28;20930;-46
2022/10/25 08:57:32;;;;;;;11.53;3.33;;;17.20;99.90;;;;;;5112402;28;20253;-47
2022/10/25 09:00:06;;;;;;;6.60;2.50;;;17.00;99.90;;;;;;5111979;28;20409;-48
2022/10/25 09:02:42;;;;;;;8.13;4.00;;;16.90;99.90;;;;;;5112332;28;20430;-47
2022/10/25 09:05:16;;;;;;;7.63;3.33;;;17.00;99.90;;;;;;5112310;28;20454;-48
2022/10/25 09:08:09;;;;;;;5.50;2.40;;;17.10;99.90;;;;;;5112344;28;20433;-47
2022/10/25 09:10:49;;;;;;;7.00;3.30;;;17.40;99.90;;;;;;5111868;28;20489;-47
2022/10/25 09:13:28;;;;;;;15.67;5.43;;;17.30;99.90;;;;;;5112031;28;20438;-48
2022/10/25 09:16:03;;;;;;;9.47;3.80;;;17.40;99.90;;;;;;5112055;28;20467;-48
2022/10/25 09:18:39;;;;;;;7.27;3.70;;;17.40;99.90;;;;;;5111715;28;20436;-47
2022/10/25 09:21:12;;;;;;;9.33;2.33;;;17.20;99.90;;;;;;5116096;28;20526;-49
2022/10/25 09:23:43;;;;;;;7.60;3.43;;;17.40;99.90;;;;;;5116648;28;20426;-47
2022/10/25 09:26:15;;;;;;;9.90;3.47;;;17.40;99.90;;;;;;5116835;28;20467;-48
2022/10/25 09:28:50;;;;;;;11.00;3.07;;;17.30;99.90;;;;;;5116304;28;20518;-47
2022/10/25 09:31:21;;;;;;;9.93;3.60;;;17.30;99.90;;;;;;5116595;28;20473;-47
2022/10/25 09:33:51;;;;;;;8.83;3.33;;;17.30;99.90;;;;;;5116189;28;20814;-47
2022/10/25 09:36:18;;;;;;;8.00;2.40;;;17.40;99.90;;;;;;5115938;28;20451;-48
2022/10/25 09:38:51;;;;;;;7.90;2.80;;;17.40;99.90;;;;;;5114481;28;20863;-48
2022/10/25 09:41:25;;;;;;;8.97;2.47;;;17.80;99.90;;;;;;5115890;28;20208;-49
2022/10/25 09:43:57;;;;;;;5.73;2.93;;;17.80;99.90;;;;;;5115905;28;20491;-47
2022/10/25 09:46:27;;;;;;;7.47;3.53;;;17.90;99.90;;;;;;5115868;28;20435;-48
2022/10/25 09:48:59;;;;;;;11.90;3.00;;;17.80;99.90;;;;;;5115469;28;20953;-49
2022/10/25 09:51:31;;;;;;;15.83;10.50;;;17.90;99.90;;;;;;5115439;28;20478;-47
2022/10/25 09:54:02;;;;;;;11.77;5.97;;;17.80;99.90;;;;;;5115331;28;20435;-48
2022/10/25 09:56:28;;;;;;;4.33;2.50;;;17.90;99.90;;;;;;5104858;27;20575;-48
2022/10/25 09:58:55;;;;;;;5.63;2.80;;;17.80;99.90;;;;;;5114788;28;20443;-48
2022/10/25 10:01:26;;;;;;;7.23;2.63;;;17.90;99.90;;;;;;5114195;28;20956;-48
2022/10/25 10:03:56;;;;;;;6.20;2.93;;;17.90;99.90;;;;;;5115105;28;20782;-48
2022/10/25 10:06:26;;;;;;;7.30;2.57;;;18.10;99.90;;;;;;5115198;28;20533;-48
2022/10/25 10:08:56;;;;;;;11.20;3.00;;;17.80;99.90;;;;;;5114589;28;20740;-48
2022/10/25 10:11:25;;;;;;;10.40;3.00;;;17.80;99.90;;;;;;5114967;28;20823;-49
2022/10/25 10:13:55;;;;;;;7.17;3.60;;;17.80;99.90;;;;;;5096736;28;20443;-48
2022/10/25 10:16:25;;;;;;;11.50;3.20;;;17.70;99.90;;;;;;5115324;28;20453;-48
2022/10/25 10:19:12;;;;;;;11.07;2.93;;;17.50;99.90;;;;;;5114625;28;20438;-49
2022/10/25 10:21:42;;;;;;;6.67;2.60;;;17.70;99.90;;;;;;5114958;28;20427;-48
2022/10/25 10:24:17;;;;;;;5.90;3.10;;;17.70;99.90;;;;;;5114830;28;20654;-49
2022/10/25 10:26:50;;;;;;;10.90;3.67;;;17.20;99.90;;;;;;5114462;28;20790;-50
2022/10/25 10:29:20;;;;;;;6.47;2.80;;;17.60;99.90;;;;;;5109358;28;20453;-51
2022/10/25 10:31:49;;;;;;;17.77;14.00;;;17.20;99.90;;;;;;5088864;28;20904;-49
2022/10/25 10:34:27;;;;;;;19.13;13.90;;;18.00;99.90;;;;;;5114543;28;20790;-50
2022/10/25 10:37:06;;;;;;;9.03;3.83;;;17.50;99.90;;;;;;5115264;28;20435;-49
2022/10/25 10:39:33;;;;;;;8.10;3.10;;;17.60;99.90;;;;;;5114655;28;20435;-49
2022/10/25 10:42:14;;;;;;;7.87;3.10;;;17.80;99.90;;;;;;5114614;28;20435;-48
2022/10/25 10:44:40;;;;;;;16.73;3.17;;;17.40;99.90;;;;;;5114264;28;20991;-49
2022/10/25 10:47:12;;;;;;;11.03;2.93;;;17.70;99.90;;;;;;5114542;28;20844;-48
2022/10/25 10:49:41;;;;;;;8.10;2.93;;;17.80;99.90;;;;;;5113969;28;20439;-50
2022/10/25 10:52:27;;;;;;;7.90;3.03;;;17.70;99.90;;;;;;5114409;28;20679;-48
2022/10/25 10:54:54;;;;;;;8.60;2.97;;;17.80;99.90;;;;;;5114197;28;20470;-48
2022/10/25 10:57:33;;;;;;;7.10;2.80;;;17.90;99.90;;;;;;5114188;28;20466;-49
2022/10/25 11:00:00;;;;;;;5.93;3.10;;;18.00;99.90;;;;;;5114484;28;20920;-48
2022/10/25 11:02:36;;;;;;;5.97;2.90;;;18.00;99.90;;;;;;5113851;28;20459;-48
2022/10/25 11:05:17;;;;;;;6.40;2.60;;;17.90;99.90;;;;;;5093961;28;20478;-49
2022/10/25 11:07:43;;;;;;;4.10;2.53;;;18.20;99.90;;;;;;5075402;28;20452;-48
2022/10/25 11:10:23;;;;;;;11.63;2.80;;;17.60;99.90;;;;;;5092814;28;20824;-48
2022/10/25 11:13:13;;;;;;;5.83;2.80;;;18.60;99.90;;;;;;5093461;28;20432;-49
2022/10/25 11:16:02;;;;;;;8.50;3.20;;;18.10;99.90;;;;;;5093273;28;20444;-48
2022/10/25 11:18:39;;;;;;;7.90;3.20;;;18.40;99.90;;;;;;5082791;28;20830;-48
2022/10/25 11:21:13;;;;;;;7.50;2.57;;;18.40;99.90;;;;;;5093791;28;20444;-47
2022/10/25 11:23:53;;;;;;;10.30;3.57;;;18.60;99.90;;;;;;5093148;28;20443;-48
2022/10/25 11:26:31;;;;;;;6.83;3.30;;;18.40;99.90;;;;;;5093089;28;20474;-48
2022/10/25 11:29:09;;;;;;;8.93;2.60;;;18.80;99.90;;;;;;5093366;28;20437;-48
2022/10/25 11:31:55;;;;;;;6.57;2.87;;;18.80;99.90;;;;;;5094008;28;20488;-49
2022/10/25 11:34:29;;;;;;;9.63;2.60;;;18.80;99.90;;;;;;5094118;28;20452;-49
2022/10/25 11:37:06;;;;;;;6.00;2.60;;;18.90;99.90;;;;;;5093457;28;20929;-47
2022/10/25 11:39:45;;;;;;;9.43;2.77;;;18.90;99.90;;;;;;5093075;28;20952;-47
2022/10/25 11:42:29;;;;;;;9.50;3.03;;;18.80;99.90;;;;;;5092511;28;20785;-47
2022/10/25 11:45:21;;;;;;;7.77;3.03;;;19.00;99.90;;;;;;5093016;28;20447;-48
2022/10/25 11:47:59;;;;;;;10.17;3.33;;;18.50;99.90;;;;;;5093129;28;20773;-49
2022/10/25 11:50:33;;;;;;;10.93;2.90;;;19.00;99.90;;;;;;5092404;28;20472;-47
2022/10/25 11:53:14;;;;;;;4.73;2.47;;;18.90;99.90;;;;;;5092899;28;20424;-48
2022/10/25 11:55:47;;;;;;;6.00;2.67;;;18.70;99.90;;;;;;5092465;28;20456;-49
2022/10/25 11:58:28;;;;;;;7.67;3.40;;;18.70;99.90;;;;;;5092963;28;20436;-48
2022/10/25 12:01:06;;;;;;;7.60;2.67;;;18.70;99.90;;;;;;5092890;28;20433;-48
2022/10/25 12:03:47;;;;;;;4.93;2.93;;;18.60;99.90;;;;;;5102463;28;20459;-49
2022/10/25 12:06:22;;;;;;;5.00;3.50;;;18.50;99.90;;;;;;5113362;28;20463;-47
2022/10/25 12:08:58;;;;;;;12.93;8.07;;;18.90;99.90;;;;;;5111616;28;20619;-49
2022/10/25 12:11:27;;;;;;;18.50;10.50;;;18.40;99.90;;;;;;5109794;28;20501;-49
2022/10/25 12:13:59;;;;;;;7.33;2.77;;;18.30;99.90;;;;;;5111236;28;20438;-48
2022/10/25 12:16:29;;;;;;;6.10;3.20;;;18.50;99.90;;;;;;5111962;28;20439;-49
2022/10/25 12:19:04;;;;;;;7.17;3.17;;;18.30;99.90;;;;;;5108477;28;20976;-47
2022/10/25 12:21:39;;;;;;;7.50;3.07;;;18.70;99.90;;;;;;5109285;28;20534;-49
2022/10/25 12:24:11;;;;;;;10.07;3.10;;;18.70;99.90;;;;;;5112454;28;20468;-48
2022/10/25 12:26:41;;;;;;;7.40;2.80;;;18.80;99.90;;;;;;5112542;28;20432;-51
2022/10/25 12:29:14;;;;;;;6.70;2.37;;;18.50;99.90;;;;;;5112486;28;20467;-49
2022/10/25 12:31:45;;;;;;;5.63;2.00;;;18.40;99.90;;;;;;5112463;28;20478;-48
2022/10/25 12:34:16;;;;;;;5.83;2.27;;;18.50;99.90;;;;;;5112361;28;20432;-48
2022/10/25 12:36:46;;;;;;;10.03;3.97;;;18.70;99.90;;;;;;5112628;28;20452;-49
2022/10/25 12:39:18;;;;;;;5.37;3.17;;;18.80;99.90;;;;;;5111701;28;20438;-49
2022/10/25 12:41:50;;;;;;;7.60;3.23;;;18.50;99.90;;;;;;5112028;28;20429;-48
2022/10/25 12:44:32;;;;;;;9.63;3.10;;;19.00;99.90;;;;;;5112261;28;20512;-49
2022/10/25 12:47:22;;;;;;;5.97;2.30;;;18.80;99.90;;;;;;5111980;28;20518;-49
2022/10/25 12:50:10;;;;;;;7.60;2.40;;;18.60;99.90;;;;;;5111703;28;20435;-49
2022/10/25 12:52:38;;;;;;;9.17;2.97;;;18.90;99.90;;;;;;5111938;28;20427;-49
2022/10/25 12:55:38;;;;;;;10.73;2.73;;;18.80;99.90;;;;;;5112071;28;20451;-47
2022/10/25 12:58:20;;;;;;;8.83;3.47;;;18.80;99.90;;;;;;5112526;28;20431;-48
2022/10/25 13:01:09;;;;;;;6.63;2.73;;;18.60;99.90;;;;;;5112200;28;20409;-48
2022/10/25 13:04:02;;;;;;;10.03;2.87;;;18.70;99.90;;;;;;5112504;28;20432;-49